Аэропорт: Кневичи. Владивосток

ICAO: UHWW

METAR:
2020-10-23 10:00:00
UHWW 231000Z VRB01MPS 9999 NSC 02/M09 Q1008 R25L/0///70 NOSIG RMK QFE755
METAR:
2020-10-23 08:00:00
TAF UHWW 230800Z 2309/2409 35007MPS 9999 SCT030CB TEMPO 2309/2409 36009G14MPS -SHSN BKN020CB